CPX81 Details

Departure: Kingsford Smith International Airport (YSSY)
Arrival: Daniel K Inouye International Airport (PHNL)


Current Weather Information
YSSY 212230Z 32007KT 9999 FEW030 18/11 Q1027 NOSIG
PHNL 212253Z 22011KT 10SM FEW025 FEW045 31/21 A3003 RMK AO2 SLP168 T03060206 $